createdAt,value
2023-05-08T00:00:02.102Z,11.02
2023-05-08T00:01:04.224Z,11.00
2023-05-08T00:02:06.434Z,11.01
2023-05-08T00:03:08.715Z,11.02
2023-05-08T00:04:11.187Z,11.01
2023-05-08T00:05:13.548Z,11.04
2023-05-08T00:06:15.673Z,11.07
2023-05-08T00:07:17.785Z,11.13
2023-05-08T00:08:19.858Z,11.12
2023-05-08T00:09:21.940Z,11.13
2023-05-08T00:10:24.044Z,11.12
2023-05-08T00:11:26.125Z,11.15
2023-05-08T00:12:28.221Z,11.19
2023-05-08T00:13:30.341Z,11.21
2023-05-08T00:14:32.394Z,11.23
2023-05-08T00:15:36.397Z,11.27
2023-05-08T00:16:38.532Z,11.30
2023-05-08T00:17:40.930Z,11.28
2023-05-08T00:18:43.140Z,11.25
2023-05-08T00:19:45.364Z,11.23
2023-05-08T00:20:47.513Z,11.17
2023-05-08T00:21:49.603Z,11.12
2023-05-08T00:22:51.701Z,11.07
2023-05-08T00:23:53.792Z,11.07
2023-05-08T00:24:55.838Z,11.07
2023-05-08T00:25:58.031Z,11.08
2023-05-08T00:27:00.149Z,11.11
2023-05-08T00:28:02.283Z,11.09
2023-05-08T00:29:06.491Z,11.08
2023-05-08T00:30:09.651Z,11.07
2023-05-08T00:31:12.002Z,11.04
2023-05-08T00:32:14.124Z,11.03
2023-05-08T00:33:16.576Z,11.03
2023-05-08T00:34:18.696Z,11.02
2023-05-08T00:35:20.906Z,10.96
2023-05-08T00:36:23.019Z,10.88
2023-05-08T00:37:25.119Z,10.86
2023-05-08T00:38:27.296Z,10.86
2023-05-08T00:39:29.623Z,10.80
2023-05-08T00:40:31.796Z,10.81
2023-05-08T00:41:33.890Z,10.81
2023-05-08T00:42:36.032Z,10.81
2023-05-08T00:43:39.955Z,10.80
2023-05-08T00:44:42.168Z,10.80
2023-05-08T00:45:44.306Z,10.76
2023-05-08T00:46:46.757Z,10.69
2023-05-08T00:47:50.249Z,10.70
2023-05-08T00:48:52.431Z,10.66
2023-05-08T00:49:54.573Z,10.69
2023-05-08T00:50:56.855Z,10.68
2023-05-08T00:51:58.959Z,10.76
2023-05-08T00:53:03.158Z,10.76
2023-05-08T00:54:05.447Z,10.66
2023-05-08T00:55:07.953Z,10.62
2023-05-08T00:56:14.374Z,10.55
2023-05-08T00:57:16.860Z,10.49
2023-05-08T00:58:21.016Z,10.48
2023-05-08T00:59:24.240Z,10.45
2023-05-08T01:00:26.554Z,10.44
2023-05-08T01:01:29.087Z,10.41
2023-05-08T01:02:31.864Z,10.39
2023-05-08T01:03:35.934Z,10.38
2023-05-08T01:04:38.432Z,10.39
2023-05-08T01:05:41.078Z,10.34
2023-05-08T01:06:43.223Z,10.35
2023-05-08T01:07:45.712Z,10.34
2023-05-08T01:08:47.926Z,10.26
2023-05-08T01:09:50.045Z,10.22
2023-05-08T01:11:10.560Z,10.20
2023-05-08T01:12:21.304Z,10.22
2023-05-08T01:13:31.915Z,10.26
2023-05-08T01:14:52.836Z,10.25
2023-05-08T01:16:01.042Z,10.22
2023-05-08T01:17:12.640Z,10.32
2023-05-08T01:18:23.278Z,10.37
2023-05-08T01:19:50.276Z,10.40
2023-05-08T01:21:01.174Z,10.49
2023-05-08T01:22:17.415Z,10.52
2023-05-08T01:23:39.785Z,10.47
2023-05-08T01:25:14.241Z,10.48
2023-05-08T01:26:36.727Z,10.56
2023-05-08T01:27:57.764Z,10.53
2023-05-08T01:29:17.929Z,10.58
2023-05-08T01:30:46.175Z,10.53
2023-05-08T01:32:06.683Z,10.49
2023-05-08T01:33:14.568Z,10.48
2023-05-08T01:34:25.557Z,10.53
2023-05-08T01:35:30.555Z,10.45
2023-05-08T01:36:38.275Z,10.42
2023-05-08T01:37:40.535Z,10.49
2023-05-08T01:38:56.030Z,10.54
2023-05-08T01:40:11.809Z,10.63
2023-05-08T01:41:20.067Z,10.71
2023-05-08T01:42:49.400Z,10.72
2023-05-08T01:43:54.073Z,10.79
2023-05-08T01:45:03.483Z,10.83
2023-05-08T01:46:09.907Z,10.78
2023-05-08T01:47:12.416Z,10.79
2023-05-08T01:48:20.026Z,10.77
2023-05-08T01:49:38.694Z,10.67
2023-05-08T01:50:46.890Z,10.71
2023-05-08T01:52:10.574Z,10.74
2023-05-08T01:53:35.314Z,10.70
2023-05-08T01:54:43.307Z,10.67
2023-05-08T01:55:47.414Z,10.61
2023-05-08T01:56:50.550Z,10.55
2023-05-08T01:57:56.555Z,10.52
2023-05-08T01:58:59.368Z,10.49
2023-05-08T02:00:03.841Z,10.46
2023-05-08T02:01:06.264Z,10.47
2023-05-08T02:02:09.648Z,10.49
2023-05-08T02:03:14.721Z,10.50
2023-05-08T02:04:17.411Z,10.46
2023-05-08T02:05:21.486Z,10.46
2023-05-08T02:06:24.046Z,10.45
2023-05-08T02:07:26.838Z,10.43
2023-05-08T02:08:30.067Z,10.47
2023-05-08T02:09:32.458Z,10.47
2023-05-08T02:10:34.888Z,10.48
2023-05-08T02:11:38.277Z,10.52
2023-05-08T02:12:41.082Z,10.51
2023-05-08T02:13:44.852Z,10.51
2023-05-08T02:14:47.967Z,10.52
2023-05-08T02:16:09.669Z,10.54
2023-05-08T02:17:12.703Z,10.55
2023-05-08T02:18:16.067Z,10.60
2023-05-08T02:19:19.908Z,10.62
2023-05-08T02:20:22.487Z,10.60
2023-05-08T02:21:24.699Z,10.58
2023-05-08T02:22:27.745Z,10.60
2023-05-08T02:23:30.023Z,10.59
2023-05-08T02:24:33.238Z,10.50
2023-05-08T02:25:35.820Z,10.51
2023-05-08T02:26:39.811Z,10.52
2023-05-08T02:27:45.711Z,10.50
2023-05-08T02:28:49.436Z,10.52
2023-05-08T02:29:52.096Z,10.48
2023-05-08T02:30:54.475Z,10.49
2023-05-08T02:31:57.586Z,10.48
2023-05-08T02:33:00.961Z,10.47
2023-05-08T02:34:04.325Z,10.50
2023-05-08T02:35:07.200Z,10.51
2023-05-08T02:36:11.216Z,10.47
2023-05-08T02:37:13.680Z,10.43
2023-05-08T02:38:15.966Z,10.49
2023-05-08T02:39:19.886Z,10.54
2023-05-08T02:40:23.591Z,10.53
2023-05-08T02:41:29.838Z,10.52
2023-05-08T02:42:32.128Z,10.51
2023-05-08T02:43:34.410Z,10.51
2023-05-08T02:44:36.520Z,10.50
2023-05-08T02:46:08.567Z,10.50
2023-05-08T02:47:26.298Z,10.48
2023-05-08T02:48:42.195Z,10.44
2023-05-08T02:49:49.134Z,10.45
2023-05-08T02:51:03.630Z,10.39
2023-05-08T02:52:22.616Z,10.40
2023-05-08T02:53:36.488Z,10.37
2023-05-08T02:54:45.108Z,10.36
2023-05-08T02:55:49.787Z,10.39
2023-05-08T02:57:02.096Z,10.32
2023-05-08T02:58:30.681Z,10.28
2023-05-08T02:59:44.494Z,10.29
2023-05-08T03:00:59.593Z,10.33
2023-05-08T03:02:09.855Z,10.34
2023-05-08T03:03:27.448Z,10.29
2023-05-08T03:04:36.926Z,10.27
2023-05-08T03:05:40.039Z,10.34
2023-05-08T03:06:45.810Z,10.37
2023-05-08T03:07:51.347Z,10.47
2023-05-08T03:08:56.031Z,10.52
2023-05-08T03:09:59.317Z,10.54
2023-05-08T03:11:06.413Z,10.47
2023-05-08T03:12:15.318Z,10.34
2023-05-08T03:13:19.279Z,10.26
2023-05-08T03:14:24.087Z,10.19
2023-05-08T03:15:28.041Z,10.14
2023-05-08T03:16:32.774Z,10.06
2023-05-08T03:17:35.606Z,10.03
2023-05-08T03:18:43.333Z,10.01
2023-05-08T03:19:50.441Z,10.02
2023-05-08T03:20:54.774Z,10.02
2023-05-08T03:21:58.214Z,10.08
2023-05-08T03:23:00.540Z,10.12
2023-05-08T03:24:03.482Z,10.18
2023-05-08T03:25:06.868Z,10.19
2023-05-08T03:26:09.602Z,10.18
2023-05-08T03:27:12.194Z,10.18
2023-05-08T03:28:14.908Z,10.18
2023-05-08T03:29:18.713Z,10.16
2023-05-08T03:30:20.934Z,10.15
2023-05-08T03:31:23.642Z,10.13
2023-05-08T03:32:26.479Z,10.15
2023-05-08T03:33:29.139Z,10.17
2023-05-08T03:34:31.597Z,10.24
2023-05-08T03:35:39.613Z,10.31
2023-05-08T03:36:42.228Z,10.37
2023-05-08T03:37:44.332Z,10.39
2023-05-08T03:38:46.572Z,10.39
2023-05-08T03:39:48.774Z,10.42
2023-05-08T03:40:51.153Z,10.47
2023-05-08T03:41:53.464Z,10.50
2023-05-08T03:42:56.192Z,10.48
2023-05-08T03:43:58.727Z,10.49
2023-05-08T03:45:01.922Z,10.49
2023-05-08T03:46:07.242Z,10.48
2023-05-08T03:47:10.278Z,10.53
2023-05-08T03:48:14.187Z,10.56
2023-05-08T03:49:17.768Z,10.55
2023-05-08T03:50:20.237Z,10.55
2023-05-08T03:51:22.860Z,10.59
2023-05-08T03:52:25.159Z,10.57
2023-05-08T03:53:27.305Z,10.56
2023-05-08T03:54:30.415Z,10.59
2023-05-08T03:55:32.924Z,10.66
2023-05-08T03:56:35.159Z,10.67
2023-05-08T03:57:46.218Z,10.71
2023-05-08T03:58:53.580Z,10.67
2023-05-08T04:00:06.790Z,10.70
2023-05-08T04:01:17.988Z,10.81
2023-05-08T04:02:31.073Z,10.85
2023-05-08T04:03:44.329Z,10.84
2023-05-08T04:04:48.103Z,10.77
2023-05-08T04:06:30.802Z,10.85
2023-05-08T04:07:39.609Z,10.85
2023-05-08T04:08:48.621Z,10.82
2023-05-08T04:09:59.575Z,10.87
2023-05-08T04:11:11.448Z,10.96
2023-05-08T04:12:39.034Z,10.96
2023-05-08T04:13:48.152Z,10.94
2023-05-08T04:14:56.804Z,10.88
2023-05-08T04:16:06.967Z,10.90
2023-05-08T04:17:10.187Z,10.89
2023-05-08T04:18:18.141Z,10.85
2023-05-08T04:19:34.125Z,10.78
2023-05-08T04:20:39.387Z,10.85
2023-05-08T04:21:43.416Z,10.92
2023-05-08T04:22:46.815Z,10.93
2023-05-08T04:23:51.084Z,10.87
2023-05-08T04:24:56.279Z,10.79
2023-05-08T04:26:00.046Z,10.81
2023-05-08T04:27:02.937Z,10.82
2023-05-08T04:28:05.590Z,10.81
2023-05-08T04:29:07.912Z,10.87
2023-05-08T04:30:10.647Z,10.86
2023-05-08T04:31:15.588Z,10.91
2023-05-08T04:32:17.951Z,10.91
2023-05-08T04:33:20.188Z,10.87
2023-05-08T04:34:23.215Z,10.92
2023-05-08T04:35:25.884Z,10.88
2023-05-08T04:36:31.053Z,10.91
2023-05-08T04:37:33.223Z,10.94
2023-05-08T04:38:38.149Z,10.92
2023-05-08T04:39:41.919Z,10.91
2023-05-08T04:40:45.477Z,10.90
2023-05-08T04:41:48.825Z,10.94
2023-05-08T04:42:51.055Z,10.94
2023-05-08T04:43:53.891Z,10.94
2023-05-08T04:44:56.027Z,10.90
2023-05-08T04:45:58.205Z,10.84
2023-05-08T04:47:00.277Z,10.77
2023-05-08T04:48:02.377Z,10.85
2023-05-08T04:49:04.571Z,10.88
2023-05-08T04:50:06.972Z,10.86
2023-05-08T04:51:09.035Z,10.95
2023-05-08T04:52:11.262Z,10.95
2023-05-08T04:53:13.525Z,10.98
2023-05-08T04:54:15.655Z,11.06
2023-05-08T04:55:17.843Z,11.12
2023-05-08T04:56:19.954Z,11.13
2023-05-08T04:57:22.046Z,11.13
2023-05-08T04:58:24.128Z,11.15
2023-05-08T04:59:26.355Z,11.16
2023-05-08T05:00:28.464Z,11.16
2023-05-08T05:01:31.005Z,11.20
2023-05-08T05:02:33.174Z,11.21
2023-05-08T05:03:35.497Z,11.23
2023-05-08T05:04:37.679Z,11.28
2023-05-08T05:05:39.821Z,11.29
2023-05-08T05:06:41.994Z,11.29
2023-05-08T05:07:44.106Z,11.32
2023-05-08T05:08:46.187Z,11.40
2023-05-08T05:09:48.321Z,11.40
2023-05-08T05:10:50.442Z,11.45
2023-05-08T05:11:52.662Z,11.39
2023-05-08T05:12:55.006Z,11.44
2023-05-08T05:13:57.208Z,11.42
2023-05-08T05:15:00.609Z,11.37
2023-05-08T05:16:02.757Z,11.39
2023-05-08T05:17:04.938Z,11.32
2023-05-08T05:18:07.040Z,11.34
2023-05-08T05:19:09.207Z,11.30
2023-05-08T05:20:11.847Z,11.31
2023-05-08T05:21:14.129Z,11.35
2023-05-08T05:22:16.324Z,11.34
2023-05-08T05:23:18.463Z,11.35
2023-05-08T05:24:20.607Z,11.40
2023-05-08T05:25:22.714Z,11.44
2023-05-08T05:26:24.856Z,11.50
2023-05-08T05:27:27.187Z,11.47
2023-05-08T05:28:29.280Z,11.41
2023-05-08T05:29:31.421Z,11.40
2023-05-08T05:30:33.614Z,11.33
2023-05-08T05:31:35.803Z,11.26
2023-05-08T05:32:37.959Z,11.28
2023-05-08T05:33:40.585Z,11.32
2023-05-08T05:34:42.708Z,11.29
2023-05-08T05:35:44.828Z,11.30
2023-05-08T05:36:47.257Z,11.33
2023-05-08T05:37:49.427Z,11.36
2023-05-08T05:38:51.531Z,11.44
2023-05-08T05:39:53.604Z,11.43
2023-05-08T05:40:55.749Z,11.43
2023-05-08T05:41:57.857Z,11.39
2023-05-08T05:42:59.969Z,11.46
2023-05-08T05:44:02.163Z,11.52
2023-05-08T05:45:04.592Z,11.56
2023-05-08T05:46:07.792Z,11.58
2023-05-08T05:47:12.649Z,11.57
2023-05-08T05:48:15.008Z,11.61
2023-05-08T05:49:17.173Z,11.62
2023-05-08T05:50:19.917Z,11.70
2023-05-08T05:51:22.395Z,11.76
2023-05-08T05:52:24.569Z,11.83
2023-05-08T05:53:26.730Z,11.91
2023-05-08T05:54:28.806Z,11.90
2023-05-08T05:55:31.426Z,11.90
2023-05-08T05:56:37.312Z,11.90
2023-05-08T05:57:39.481Z,11.92
2023-05-08T05:58:44.923Z,11.91
2023-05-08T05:59:47.209Z,12.00
2023-05-08T06:00:49.540Z,12.01
2023-05-08T06:01:51.861Z,12.09
2023-05-08T06:02:54.122Z,12.01
2023-05-08T06:03:56.487Z,12.03
2023-05-08T06:04:59.360Z,12.01
2023-05-08T06:06:01.484Z,11.99
2023-05-08T06:07:03.621Z,12.07
2023-05-08T06:08:05.856Z,12.09
2023-05-08T06:09:08.039Z,12.08
2023-05-08T06:10:11.086Z,12.14
2023-05-08T06:11:13.252Z,12.16
2023-05-08T06:12:15.465Z,12.22
2023-05-08T06:13:17.679Z,12.20
2023-05-08T06:14:20.423Z,12.25
2023-05-08T06:15:22.621Z,12.26
2023-05-08T06:16:25.052Z,12.24
2023-05-08T06:17:27.296Z,12.17
2023-05-08T06:18:29.488Z,12.21
2023-05-08T06:19:31.648Z,12.12
2023-05-08T06:20:33.771Z,12.22
2023-05-08T06:21:35.924Z,12.30
2023-05-08T06:22:39.353Z,12.37
2023-05-08T06:23:42.751Z,12.31
2023-05-08T06:24:45.265Z,12.43
2023-05-08T06:25:47.323Z,12.59
2023-05-08T06:26:49.434Z,12.78
2023-05-08T06:27:51.577Z,12.72
2023-05-08T06:28:53.676Z,12.65
2023-05-08T06:30:14.112Z,12.65
2023-05-08T06:31:16.279Z,12.65
2023-05-08T06:32:19.272Z,12.63
2023-05-08T06:33:21.499Z,12.56
2023-05-08T06:34:23.610Z,12.58
2023-05-08T06:35:25.781Z,12.54
2023-05-08T06:36:27.870Z,12.49
2023-05-08T06:37:29.985Z,12.52
2023-05-08T06:38:32.284Z,12.56
2023-05-08T06:39:34.468Z,12.63
2023-05-08T06:40:36.581Z,12.72
2023-05-08T06:41:38.751Z,12.79
2023-05-08T06:42:41.371Z,12.83
2023-05-08T06:43:43.515Z,12.93
2023-05-08T06:44:45.630Z,13.02
2023-05-08T06:45:47.902Z,13.04
2023-05-08T06:46:50.022Z,13.12
2023-05-08T06:47:52.232Z,13.08
2023-05-08T06:48:54.413Z,13.18
2023-05-08T06:49:56.663Z,13.30
2023-05-08T06:50:58.796Z,13.12
2023-05-08T06:52:01.262Z,13.12
2023-05-08T06:53:03.391Z,13.23
2023-05-08T06:54:08.726Z,13.27
2023-05-08T06:55:11.033Z,13.38
2023-05-08T06:56:13.255Z,13.51
2023-05-08T06:57:16.256Z,13.50
2023-05-08T06:58:18.399Z,13.44
2023-05-08T06:59:21.441Z,13.47
2023-05-08T07:00:23.545Z,13.54
2023-05-08T07:01:25.770Z,13.56
2023-05-08T07:02:27.965Z,13.54
2023-05-08T07:03:30.122Z,13.64
2023-05-08T07:04:33.031Z,13.84
2023-05-08T07:05:35.206Z,13.75
2023-05-08T07:06:37.333Z,13.81
2023-05-08T07:07:39.477Z,13.93
2023-05-08T07:08:41.694Z,14.03
2023-05-08T07:09:43.824Z,14.00
2023-05-08T07:10:46.100Z,13.97
2023-05-08T07:11:48.335Z,14.14
2023-05-08T07:12:50.751Z,14.22
2023-05-08T07:13:52.925Z,14.24
2023-05-08T07:14:55.917Z,14.36
2023-05-08T07:15:59.455Z,14.44
2023-05-08T07:17:07.699Z,14.41
2023-05-08T07:18:09.922Z,14.55
2023-05-08T07:19:12.081Z,14.74
2023-05-08T07:20:14.299Z,14.89
2023-05-08T07:21:18.141Z,15.02
2023-05-08T07:22:21.180Z,15.08
2023-05-08T07:23:23.349Z,15.07
2023-05-08T07:24:25.406Z,15.30
2023-05-08T07:25:27.551Z,15.32
2023-05-08T07:26:29.683Z,15.19
2023-05-08T07:27:31.875Z,15.07
2023-05-08T07:28:34.149Z,14.87
2023-05-08T07:29:36.426Z,14.83
2023-05-08T07:30:38.478Z,14.50
2023-05-08T07:31:41.475Z,14.67
2023-05-08T07:32:43.800Z,14.67
2023-05-08T07:33:47.017Z,14.75
2023-05-08T07:34:49.157Z,14.84
2023-05-08T07:35:51.506Z,14.81
2023-05-08T07:36:53.629Z,14.62
2023-05-08T07:37:55.822Z,14.65
2023-05-08T07:38:57.909Z,14.79
2023-05-08T07:39:59.990Z,14.75
2023-05-08T07:41:02.270Z,14.59
2023-05-08T07:42:04.439Z,14.62
2023-05-08T07:43:06.554Z,14.47
2023-05-08T07:44:08.822Z,14.34
2023-05-08T07:45:12.389Z,14.30
2023-05-08T07:46:18.213Z,14.23
2023-05-08T07:47:20.465Z,14.04
2023-05-08T07:48:22.668Z,14.02
2023-05-08T07:49:25.068Z,14.01
2023-05-08T07:50:27.228Z,14.17
2023-05-08T07:51:29.513Z,14.22
2023-05-08T07:52:31.900Z,14.21
2023-05-08T07:53:34.098Z,14.24
2023-05-08T07:54:36.167Z,14.35
2023-05-08T07:55:38.363Z,14.51
2023-05-08T07:56:40.491Z,14.59
2023-05-08T07:57:43.503Z,14.75
2023-05-08T07:58:46.111Z,14.98
2023-05-08T07:59:48.272Z,15.14
2023-05-08T08:00:50.346Z,15.12
2023-05-08T08:01:52.664Z,15.27
2023-05-08T08:02:54.952Z,15.10
2023-05-08T08:03:57.500Z,15.07
2023-05-08T08:04:59.690Z,14.95
2023-05-08T08:06:01.807Z,15.08
2023-05-08T08:07:03.969Z,15.06
2023-05-08T08:08:06.121Z,15.08
2023-05-08T08:09:08.254Z,15.19
2023-05-08T08:10:19.404Z,15.28
2023-05-08T08:11:21.767Z,15.18
2023-05-08T08:12:24.005Z,14.90
2023-05-08T08:13:26.289Z,15.03
2023-05-08T08:14:28.803Z,15.11
2023-05-08T08:15:31.437Z,15.06
2023-05-08T08:16:34.186Z,15.03
2023-05-08T08:17:36.735Z,15.03
2023-05-08T08:18:42.584Z,15.03
2023-05-08T08:19:45.087Z,14.99
2023-05-08T08:20:47.531Z,15.03
2023-05-08T08:21:49.702Z,15.17
2023-05-08T08:22:51.952Z,15.38
2023-05-08T08:23:54.051Z,15.45
2023-05-08T08:24:56.701Z,15.46
2023-05-08T08:25:58.863Z,15.56
2023-05-08T08:27:00.973Z,15.77
2023-05-08T08:28:03.099Z,15.96
2023-05-08T08:29:05.310Z,16.17
2023-05-08T08:30:16.958Z,16.26
2023-05-08T08:31:20.712Z,16.44
2023-05-08T08:32:22.855Z,16.42
2023-05-08T08:33:24.952Z,16.18
2023-05-08T08:34:27.090Z,16.06
2023-05-08T08:35:30.253Z,15.80
2023-05-08T08:36:32.729Z,15.87
2023-05-08T08:37:34.909Z,15.98
2023-05-08T08:38:37.566Z,16.13
2023-05-08T08:39:39.719Z,16.41
2023-05-08T08:40:42.595Z,16.60
2023-05-08T08:41:44.750Z,16.67
2023-05-08T08:42:47.354Z,16.64
2023-05-08T08:43:49.472Z,16.50
2023-05-08T08:44:51.658Z,16.45
2023-05-08T08:45:53.829Z,16.55
2023-05-08T08:46:58.398Z,16.70
2023-05-08T08:48:02.305Z,16.67
2023-05-08T08:49:05.118Z,16.63
2023-05-08T08:50:10.388Z,16.81
2023-05-08T08:51:42.394Z,16.96
2023-05-08T08:53:08.808Z,17.25
2023-05-08T08:54:14.868Z,17.44
2023-05-08T08:55:18.360Z,17.58
2023-05-08T08:56:22.835Z,17.60
2023-05-08T08:57:26.740Z,17.55
2023-05-08T08:58:33.416Z,17.63
2023-05-08T08:59:38.262Z,17.76
2023-05-08T09:00:40.750Z,17.87
2023-05-08T09:01:45.689Z,17.91
2023-05-08T09:02:48.094Z,17.89
2023-05-08T09:03:50.701Z,18.03
2023-05-08T09:04:53.166Z,18.14
2023-05-08T09:06:01.082Z,18.30
2023-05-08T09:07:05.416Z,18.71
2023-05-08T09:08:07.792Z,19.11
2023-05-08T09:09:12.635Z,19.64
2023-05-08T09:10:15.538Z,20.10
2023-05-08T09:11:17.664Z,20.46
2023-05-08T09:12:19.750Z,20.69
2023-05-08T09:13:22.783Z,20.99
2023-05-08T09:14:26.719Z,21.29
2023-05-08T09:15:28.844Z,21.30
2023-05-08T09:16:31.160Z,21.23
2023-05-08T09:17:33.285Z,21.25
2023-05-08T09:18:35.478Z,21.15
2023-05-08T09:19:38.127Z,20.71
2023-05-08T09:20:41.359Z,20.37
2023-05-08T09:21:43.612Z,20.09
2023-05-08T09:22:46.130Z,20.06
2023-05-08T09:24:02.426Z,20.19
2023-05-08T09:25:04.935Z,20.42
2023-05-08T09:26:07.135Z,20.67
2023-05-08T09:27:21.316Z,21.18
2023-05-08T09:28:24.784Z,21.50
2023-05-08T09:29:26.865Z,21.65
2023-05-08T09:30:29.026Z,21.73
2023-05-08T09:31:39.950Z,21.59
2023-05-08T09:32:43.860Z,22.00
2023-05-08T09:33:46.063Z,22.10
2023-05-08T09:34:52.689Z,22.38
2023-05-08T09:35:55.834Z,22.42
2023-05-08T09:37:09.875Z,22.09
2023-05-08T09:38:30.202Z,22.42
2023-05-08T09:39:32.338Z,22.60
2023-05-08T09:40:34.590Z,22.66
2023-05-08T09:41:36.688Z,22.45
2023-05-08T09:42:38.997Z,22.42
2023-05-08T09:43:42.170Z,22.49
2023-05-08T09:44:46.053Z,22.56
2023-05-08T09:45:48.178Z,22.22
2023-05-08T09:46:50.752Z,21.87
2023-05-08T09:47:52.909Z,21.95
2023-05-08T09:48:57.467Z,22.26
2023-05-08T09:50:01.335Z,22.46
2023-05-08T09:51:07.206Z,22.33
2023-05-08T09:52:15.763Z,21.90
2023-05-08T09:53:17.953Z,21.63
2023-05-08T09:54:20.076Z,21.89
2023-05-08T09:55:22.216Z,21.61
2023-05-08T09:56:40.388Z,21.08
2023-05-08T09:57:54.050Z,21.18
2023-05-08T09:58:56.211Z,21.68
2023-05-08T10:00:10.072Z,22.05
2023-05-08T10:01:31.026Z,22.30
2023-05-08T10:02:33.438Z,22.69
2023-05-08T10:03:50.587Z,22.72
2023-05-08T10:04:52.918Z,23.33
2023-05-08T10:05:55.036Z,23.50
2023-05-08T10:07:00.389Z,23.46
2023-05-08T10:08:19.876Z,23.57
2023-05-08T10:09:21.968Z,24.10
2023-05-08T10:10:28.849Z,24.10
2023-05-08T10:11:31.445Z,24.02
2023-05-08T10:12:33.941Z,24.14
2023-05-08T10:13:36.089Z,23.89
2023-05-08T10:14:38.247Z,24.05
2023-05-08T10:15:42.838Z,23.93
2023-05-08T10:16:46.564Z,24.24
2023-05-08T10:17:54.951Z,23.99
2023-05-08T10:19:02.101Z,24.09
2023-05-08T10:20:07.831Z,23.80
2023-05-08T10:21:10.046Z,23.67
2023-05-08T10:22:12.815Z,23.60
2023-05-08T10:23:17.428Z,23.35
2023-05-08T10:24:21.617Z,22.72
2023-05-08T10:25:24.516Z,22.86
2023-05-08T10:26:31.838Z,23.22
2023-05-08T10:27:41.629Z,23.79
2023-05-08T10:28:50.431Z,23.96
2023-05-08T10:29:54.670Z,24.18
2023-05-08T10:31:03.680Z,24.39
2023-05-08T10:32:11.368Z,24.42
2023-05-08T10:33:15.987Z,24.74
2023-05-08T10:34:22.858Z,24.86
2023-05-08T10:35:25.409Z,24.38
2023-05-08T10:36:30.322Z,24.23
2023-05-08T10:37:33.637Z,24.36
2023-05-08T10:38:37.328Z,24.65
2023-05-08T10:39:40.733Z,24.50
2023-05-08T10:40:43.063Z,24.61
2023-05-08T10:41:45.173Z,24.82
2023-05-08T10:42:47.935Z,24.71
2023-05-08T10:43:50.524Z,24.80
2023-05-08T10:44:53.020Z,24.69
2023-05-08T10:45:57.097Z,24.72
2023-05-08T10:47:11.911Z,24.58
2023-05-08T10:48:40.433Z,24.26
2023-05-08T10:50:06.135Z,24.53
2023-05-08T10:51:22.231Z,23.55
2023-05-08T10:52:30.357Z,23.45
2023-05-08T10:53:51.441Z,23.50
2023-05-08T10:55:02.288Z,24.41
2023-05-08T10:56:04.760Z,24.47
2023-05-08T10:57:09.642Z,24.99
2023-05-08T10:58:13.004Z,24.84
2023-05-08T10:59:19.155Z,24.66
2023-05-08T11:00:22.722Z,24.41
2023-05-08T11:01:26.339Z,24.42
2023-05-08T11:02:30.378Z,24.90
2023-05-08T11:03:33.883Z,25.06
2023-05-08T11:04:36.613Z,25.48
2023-05-08T11:05:48.646Z,25.08
2023-05-08T11:06:53.276Z,24.33
2023-05-08T11:07:59.295Z,24.04
2023-05-08T11:09:01.657Z,24.03
2023-05-08T11:10:07.985Z,24.84
2023-05-08T11:11:26.937Z,25.20
2023-05-08T11:12:33.945Z,25.24
2023-05-08T11:13:36.654Z,25.35
2023-05-08T11:14:41.875Z,25.68
2023-05-08T11:15:50.405Z,25.27
2023-05-08T11:16:55.242Z,25.67
2023-05-08T11:17:57.636Z,25.53
2023-05-08T11:19:18.515Z,25.86
2023-05-08T11:20:23.657Z,25.71
2023-05-08T11:21:26.595Z,26.02
2023-05-08T11:22:33.221Z,25.92
2023-05-08T11:23:36.709Z,26.17
2023-05-08T11:24:39.874Z,26.67
2023-05-08T11:25:43.559Z,26.30
2023-05-08T11:26:48.936Z,26.35
2023-05-08T11:27:51.213Z,26.52
2023-05-08T11:28:53.327Z,26.57
2023-05-08T11:30:35.129Z,26.15
2023-05-08T11:31:49.966Z,26.78
2023-05-08T11:33:04.710Z,26.70
2023-05-08T11:34:42.355Z,26.64
2023-05-08T11:36:03.413Z,26.58
2023-05-08T11:37:09.373Z,26.81
2023-05-08T11:38:20.079Z,26.98
2023-05-08T11:39:22.050Z,26.54
2023-05-08T11:40:47.241Z,26.50
2023-05-08T11:41:49.396Z,26.55
2023-05-08T11:42:51.514Z,26.96
2023-05-08T11:44:02.522Z,27.03
2023-05-08T11:45:07.816Z,27.07
2023-05-08T11:46:16.812Z,27.22
2023-05-08T11:47:20.413Z,27.30
2023-05-08T11:48:22.785Z,27.27
2023-05-08T11:49:29.586Z,27.03
2023-05-08T11:50:32.011Z,27.31
2023-05-08T11:51:34.237Z,27.30
2023-05-08T11:52:37.584Z,27.34
2023-05-08T11:53:40.030Z,27.52
2023-05-08T11:54:42.494Z,27.24
2023-05-08T11:55:48.490Z,27.33
2023-05-08T11:56:52.009Z,26.98
2023-05-08T11:57:56.889Z,27.31
2023-05-08T11:59:05.783Z,27.12
2023-05-08T12:00:09.966Z,27.01
2023-05-08T12:01:17.542Z,26.86
2023-05-08T12:02:20.043Z,26.82
2023-05-08T12:03:25.090Z,26.94
2023-05-08T12:04:27.504Z,27.15
2023-05-08T12:05:29.784Z,27.71
2023-05-08T12:06:32.844Z,27.23
2023-05-08T12:07:47.472Z,27.00
2023-05-08T12:08:49.598Z,26.98
2023-05-08T12:09:51.784Z,26.98
2023-05-08T12:10:56.623Z,26.85
2023-05-08T12:11:59.071Z,26.75
2023-05-08T12:13:01.377Z,26.53
2023-05-08T12:14:03.577Z,26.42
2023-05-08T12:15:07.794Z,26.42
2023-05-08T12:16:11.208Z,26.50
2023-05-08T12:17:17.844Z,26.49
2023-05-08T12:18:21.472Z,26.87
2023-05-08T12:19:23.596Z,26.86
2023-05-08T12:20:25.789Z,26.64
2023-05-08T12:21:27.897Z,26.71
2023-05-08T12:22:30.011Z,26.68
2023-05-08T12:23:33.078Z,27.18
2023-05-08T12:24:35.250Z,27.51
2023-05-08T12:25:40.717Z,27.49
2023-05-08T12:26:42.878Z,27.80
2023-05-08T12:27:45.447Z,28.04
2023-05-08T12:28:48.296Z,27.53
2023-05-08T12:29:50.468Z,27.35
2023-05-08T12:30:52.622Z,27.38
2023-05-08T12:31:54.896Z,28.00
2023-05-08T12:32:57.337Z,27.33
2023-05-08T12:33:59.521Z,27.68
2023-05-08T12:35:01.810Z,27.82
2023-05-08T12:36:05.644Z,27.91
2023-05-08T12:37:07.856Z,27.78
2023-05-08T12:38:11.960Z,27.66
2023-05-08T12:39:18.898Z,27.63
2023-05-08T12:40:26.645Z,28.19
2023-05-08T12:41:28.787Z,27.93
2023-05-08T12:42:43.883Z,28.58
2023-05-08T12:43:46.782Z,28.48
2023-05-08T12:44:52.564Z,27.61
2023-05-08T12:45:54.782Z,27.37
2023-05-08T12:46:57.741Z,27.21
2023-05-08T12:48:04.862Z,27.30
2023-05-08T12:49:10.461Z,27.63
2023-05-08T12:50:15.042Z,27.77
2023-05-08T12:51:17.382Z,28.25
2023-05-08T12:52:19.530Z,28.90
2023-05-08T12:53:22.064Z,29.12
2023-05-08T12:54:38.509Z,28.70
2023-05-08T12:55:52.800Z,29.09
2023-05-08T12:56:55.075Z,28.44
2023-05-08T12:58:15.395Z,28.44
2023-05-08T12:59:28.714Z,28.42
2023-05-08T13:00:39.223Z,28.58
2023-05-08T13:01:41.400Z,27.71
2023-05-08T13:02:54.198Z,27.36
2023-05-08T13:04:02.328Z,27.37
2023-05-08T13:05:05.858Z,26.90
2023-05-08T13:06:20.742Z,27.55
2023-05-08T13:07:22.875Z,27.85
2023-05-08T13:08:34.120Z,28.10
2023-05-08T13:09:36.578Z,28.65
2023-05-08T13:10:50.540Z,28.65
2023-05-08T13:11:52.621Z,28.87
2023-05-08T13:12:54.733Z,28.65
2023-05-08T13:13:56.921Z,28.07
2023-05-08T13:14:59.142Z,28.22
2023-05-08T13:16:05.980Z,28.18
2023-05-08T13:17:08.302Z,28.17
2023-05-08T13:18:10.560Z,28.63
2023-05-08T13:19:12.843Z,28.28
2023-05-08T13:20:15.083Z,27.94
2023-05-08T13:21:17.419Z,28.27
2023-05-08T13:22:23.125Z,28.05
2023-05-08T13:23:25.487Z,28.92
2023-05-08T13:24:27.551Z,28.82
2023-05-08T13:25:32.870Z,28.42
2023-05-08T13:26:34.981Z,28.00
2023-05-08T13:27:37.153Z,28.29
2023-05-08T13:28:39.245Z,27.87
2023-05-08T13:29:41.336Z,27.59
2023-05-08T13:30:43.525Z,27.66
2023-05-08T13:31:45.725Z,27.92
2023-05-08T13:32:49.318Z,28.30
2023-05-08T13:33:51.430Z,28.33
2023-05-08T13:34:57.056Z,28.56
2023-05-08T13:36:00.884Z,28.85
2023-05-08T13:37:03.057Z,28.79
2023-05-08T13:38:06.094Z,28.99
2023-05-08T13:39:08.366Z,28.90
2023-05-08T13:40:11.335Z,28.56
2023-05-08T13:41:13.530Z,28.79
2023-05-08T13:42:15.743Z,28.85
2023-05-08T13:43:17.927Z,28.93
2023-05-08T13:44:20.060Z,28.85
2023-05-08T13:45:22.228Z,28.69
2023-05-08T13:46:24.978Z,28.42
2023-05-08T13:47:27.618Z,28.68
2023-05-08T13:48:29.728Z,28.90
2023-05-08T13:49:31.807Z,28.68
2023-05-08T13:50:33.884Z,28.68
2023-05-08T13:51:35.978Z,28.92
2023-05-08T13:52:38.971Z,28.89
2023-05-08T13:53:41.055Z,29.29
2023-05-08T13:54:43.206Z,29.40
2023-05-08T13:55:45.528Z,28.91